sensor_id;sensor_type;location;lat;lon;timestamp;pressure;altitude;pressure_sealevel;temperature;humidity
35647;BME280;28680;45.642;13.756;2023-08-12T00:00:53;101834.22;;;24.82;100.00
35647;BME280;28680;45.642;13.756;2023-08-12T00:03:19;101825.28;;;24.75;100.00
35647;BME280;28680;45.642;13.756;2023-08-12T00:05:45;101825.44;;;24.73;100.00
35647;BME280;28680;45.642;13.756;2023-08-12T00:08:11;101830.00;;;24.73;100.00
35647;BME280;28680;45.642;13.756;2023-08-12T00:10:37;101832.75;;;24.64;100.00
35647;BME280;28680;45.642;13.756;2023-08-12T00:13:03;101829.44;;;24.62;100.00
35647;BME280;28680;45.642;13.756;2023-08-12T00:15:29;101818.88;;;24.61;100.00
35647;BME280;28680;45.642;13.756;2023-08-12T00:17:55;101825.75;;;24.63;100.00
35647;BME280;28680;45.642;13.756;2023-08-12T00:20:21;101813.34;;;24.62;100.00
35647;BME280;28680;45.642;13.756;2023-08-12T00:22:47;101816.38;;;24.59;100.00
35647;BME280;28680;45.642;13.756;2023-08-12T00:25:13;101819.06;;;24.59;100.00
35647;BME280;28680;45.642;13.756;2023-08-12T00:27:39;101812.88;;;24.59;100.00
35647;BME280;28680;45.642;13.756;2023-08-12T00:30:06;101815.00;;;24.63;100.00
35647;BME280;28680;45.642;13.756;2023-08-12T00:32:32;101811.28;;;24.64;100.00
35647;BME280;28680;45.642;13.756;2023-08-12T00:34:57;101806.09;;;24.63;100.00
35647;BME280;28680;45.642;13.756;2023-08-12T00:37:23;101809.25;;;24.66;100.00
35647;BME280;28680;45.642;13.756;2023-08-12T00:39:50;101806.97;;;24.63;100.00
35647;BME280;28680;45.642;13.756;2023-08-12T00:42:16;101809.63;;;24.63;100.00
35647;BME280;28680;45.642;13.756;2023-08-12T00:44:41;101807.13;;;24.62;100.00
35647;BME280;28680;45.642;13.756;2023-08-12T00:47:07;101804.63;;;24.60;100.00
35647;BME280;28680;45.642;13.756;2023-08-12T00:49:34;101813.44;;;24.54;100.00
35647;BME280;28680;45.642;13.756;2023-08-12T00:52:02;101811.38;;;24.41;100.00
35647;BME280;28680;45.642;13.756;2023-08-12T00:54:28;101812.84;;;24.44;100.00
35647;BME280;28680;45.642;13.756;2023-08-12T00:56:55;101810.81;;;24.46;100.00
35647;BME280;28680;45.642;13.756;2023-08-12T00:59:22;101815.91;;;24.41;100.00
35647;BME280;28680;45.642;13.756;2023-08-12T01:01:49;101803.44;;;24.33;100.00
35647;BME280;28680;45.642;13.756;2023-08-12T01:04:15;101807.13;;;24.32;100.00
35647;BME280;28680;45.642;13.756;2023-08-12T01:06:41;101808.88;;;24.25;100.00
35647;BME280;28680;45.642;13.756;2023-08-12T01:09:09;101816.00;;;24.18;100.00
35647;BME280;28680;45.642;13.756;2023-08-12T01:11:49;101807.03;;;24.10;100.00
35647;BME280;28680;45.642;13.756;2023-08-12T01:14:32;101807.38;;;24.07;100.00
35647;BME280;28680;45.642;13.756;2023-08-12T01:17:05;101811.38;;;24.11;100.00
35647;BME280;28680;45.642;13.756;2023-08-12T01:19:39;101809.78;;;24.02;100.00
35647;BME280;28680;45.642;13.756;2023-08-12T01:22:11;101811.94;;;24.07;100.00
35647;BME280;28680;45.642;13.756;2023-08-12T01:24:42;101818.28;;;24.06;100.00
35647;BME280;28680;45.642;13.756;2023-08-12T01:27:12;101808.59;;;24.05;100.00
35647;BME280;28680;45.642;13.756;2023-08-12T01:29:45;101810.72;;;24.09;100.00
35647;BME280;28680;45.642;13.756;2023-08-12T01:32:36;101821.72;;;24.00;100.00
35647;BME280;28680;45.642;13.756;2023-08-12T01:37:32;101817.47;;;24.05;100.00
35647;BME280;28680;45.642;13.756;2023-08-12T01:40:02;101806.38;;;24.08;100.00
35647;BME280;28680;45.642;13.756;2023-08-12T01:42:36;101806.94;;;24.04;100.00
35647;BME280;28680;45.642;13.756;2023-08-12T01:45:04;101797.59;;;24.00;100.00
35647;BME280;28680;45.642;13.756;2023-08-12T01:47:31;101804.16;;;23.97;100.00
35647;BME280;28680;45.642;13.756;2023-08-12T01:49:58;101808.88;;;23.95;100.00
35647;BME280;28680;45.642;13.756;2023-08-12T01:52:24;101794.25;;;23.98;100.00
35647;BME280;28680;45.642;13.756;2023-08-12T01:54:50;101802.63;;;23.80;100.00
35647;BME280;28680;45.642;13.756;2023-08-12T01:57:17;101800.41;;;23.83;100.00
35647;BME280;28680;45.642;13.756;2023-08-12T01:59:43;101795.91;;;23.84;100.00
35647;BME280;28680;45.642;13.756;2023-08-12T02:02:10;101803.97;;;23.84;100.00
35647;BME280;28680;45.642;13.756;2023-08-12T02:04:37;101798.69;;;23.90;100.00
35647;BME280;28680;45.642;13.756;2023-08-12T02:07:04;101793.97;;;23.92;100.00
35647;BME280;28680;45.642;13.756;2023-08-12T02:09:30;101792.31;;;23.91;100.00
35647;BME280;28680;45.642;13.756;2023-08-12T02:11:57;101781.59;;;23.91;100.00
35647;BME280;28680;45.642;13.756;2023-08-12T02:14:23;101786.47;;;23.88;100.00
35647;BME280;28680;45.642;13.756;2023-08-12T02:16:49;101789.34;;;23.86;100.00
35647;BME280;28680;45.642;13.756;2023-08-12T02:19:15;101789.88;;;23.82;100.00
35647;BME280;28680;45.642;13.756;2023-08-12T02:21:42;101792.59;;;23.73;100.00
35647;BME280;28680;45.642;13.756;2023-08-12T02:24:08;101788.72;;;23.76;100.00
35647;BME280;28680;45.642;13.756;2023-08-12T02:26:38;101785.94;;;23.69;100.00
35647;BME280;28680;45.642;13.756;2023-08-12T02:29:04;101783.84;;;23.65;100.00
35647;BME280;28680;45.642;13.756;2023-08-12T02:33:56;101778.22;;;23.74;100.00
35647;BME280;28680;45.642;13.756;2023-08-12T02:36:24;101781.72;;;23.75;100.00
35647;BME280;28680;45.642;13.756;2023-08-12T02:38:51;101779.38;;;23.72;100.00
35647;BME280;28680;45.642;13.756;2023-08-12T02:41:17;101776.34;;;23.75;100.00
35647;BME280;28680;45.642;13.756;2023-08-12T02:43:43;101775.69;;;23.73;100.00
35647;BME280;28680;45.642;13.756;2023-08-12T02:46:08;101775.69;;;23.73;100.00
35647;BME280;28680;45.642;13.756;2023-08-12T02:48:35;101774.66;;;23.74;100.00
35647;BME280;28680;45.642;13.756;2023-08-12T02:51:02;101772.13;;;23.81;100.00
35647;BME280;28680;45.642;13.756;2023-08-12T02:53:28;101765.28;;;23.78;100.00
35647;BME280;28680;45.642;13.756;2023-08-12T02:58:20;101764.69;;;23.68;100.00
35647;BME280;28680;45.642;13.756;2023-08-12T03:00:46;101761.00;;;23.69;100.00
35647;BME280;28680;45.642;13.756;2023-08-12T03:03:12;101765.91;;;23.65;100.00
35647;BME280;28680;45.642;13.756;2023-08-12T03:05:38;101769.09;;;23.61;100.00
35647;BME280;28680;45.642;13.756;2023-08-12T03:08:05;101764.13;;;23.58;100.00
35647;BME280;28680;45.642;13.756;2023-08-12T03:10:33;101761.44;;;23.58;100.00
35647;BME280;28680;45.642;13.756;2023-08-12T03:13:00;101769.66;;;23.56;100.00
35647;BME280;28680;45.642;13.756;2023-08-12T03:15:26;101767.16;;;23.54;100.00
35647;BME280;28680;45.642;13.756;2023-08-12T03:17:52;101765.22;;;23.48;100.00
35647;BME280;28680;45.642;13.756;2023-08-12T03:20:18;101763.19;;;23.50;100.00
35647;BME280;28680;45.642;13.756;2023-08-12T03:22:45;101772.41;;;23.48;100.00
35647;BME280;28680;45.642;13.756;2023-08-12T03:25:11;101765.09;;;23.42;100.00
35647;BME280;28680;45.642;13.756;2023-08-12T03:27:37;101766.13;;;23.41;100.00
35647;BME280;28680;45.642;13.756;2023-08-12T03:30:04;101772.59;;;23.46;100.00
35647;BME280;28680;45.642;13.756;2023-08-12T03:32:31;101778.59;;;23.48;100.00
35647;BME280;28680;45.642;13.756;2023-08-12T03:34:58;101780.47;;;23.48;100.00
35647;BME280;28680;45.642;13.756;2023-08-12T03:37:26;101778.47;;;23.42;100.00
35647;BME280;28680;45.642;13.756;2023-08-12T03:39:53;101779.13;;;23.67;100.00
35647;BME280;28680;45.642;13.756;2023-08-12T03:42:19;101777.66;;;23.41;100.00
35647;BME280;28680;45.642;13.756;2023-08-12T03:44:47;101779.03;;;23.37;100.00
35647;BME280;28680;45.642;13.756;2023-08-12T03:47:12;101784.69;;;23.42;100.00
35647;BME280;28680;45.642;13.756;2023-08-12T03:49:39;101777.81;;;23.40;100.00
35647;BME280;28680;45.642;13.756;2023-08-12T03:52:06;101777.81;;;23.40;100.00
35647;BME280;28680;45.642;13.756;2023-08-12T03:54:33;101773.13;;;23.42;100.00
35647;BME280;28680;45.642;13.756;2023-08-12T03:57:00;101781.53;;;23.39;100.00
35647;BME280;28680;45.642;13.756;2023-08-12T03:59:27;101784.72;;;23.34;100.00
35647;BME280;28680;45.642;13.756;2023-08-12T04:01:53;101784.72;;;23.34;100.00
35647;BME280;28680;45.642;13.756;2023-08-12T04:04:19;101774.84;;;23.34;100.00
35647;BME280;28680;45.642;13.756;2023-08-12T04:06:45;101779.06;;;23.29;100.00
35647;BME280;28680;45.642;13.756;2023-08-12T04:09:15;101767.34;;;23.30;100.00
35647;BME280;28680;45.642;13.756;2023-08-12T04:11:41;101773.38;;;23.32;100.00
35647;BME280;28680;45.642;13.756;2023-08-12T04:14:08;101774.03;;;23.34;100.00
35647;BME280;28680;45.642;13.756;2023-08-12T04:16:34;101769.38;;;23.28;100.00
35647;BME280;28680;45.642;13.756;2023-08-12T04:18:59;101770.22;;;23.28;100.00
35647;BME280;28680;45.642;13.756;2023-08-12T04:21:26;101775.41;;;23.30;100.00
35647;BME280;28680;45.642;13.756;2023-08-12T04:23:52;101776.59;;;23.27;100.00
35647;BME280;28680;45.642;13.756;2023-08-12T04:26:18;101773.91;;;23.27;100.00
35647;BME280;28680;45.642;13.756;2023-08-12T04:28:45;101770.38;;;23.27;100.00
35647;BME280;28680;45.642;13.756;2023-08-12T04:31:11;101776.69;;;23.34;100.00
35647;BME280;28680;45.642;13.756;2023-08-12T04:33:40;101777.25;;;23.29;100.00
35647;BME280;28680;45.642;13.756;2023-08-12T04:36:06;101779.06;;;23.29;100.00
35647;BME280;28680;45.642;13.756;2023-08-12T04:38:33;101783.50;;;23.22;100.00
35647;BME280;28680;45.642;13.756;2023-08-12T04:41:01;101779.28;;;23.27;100.00
35647;BME280;28680;45.642;13.756;2023-08-12T04:43:27;101776.78;;;23.26;100.00
35647;BME280;28680;45.642;13.756;2023-08-12T04:45:53;101777.50;;;23.20;100.00
35647;BME280;28680;45.642;13.756;2023-08-12T04:48:19;101775.22;;;23.31;100.00
35647;BME280;28680;45.642;13.756;2023-08-12T04:50:45;101775.03;;;23.33;100.00
35647;BME280;28680;45.642;13.756;2023-08-12T04:53:11;101783.78;;;23.27;100.00
35647;BME280;28680;45.642;13.756;2023-08-12T04:55:37;101786.09;;;23.30;100.00
35647;BME280;28680;45.642;13.756;2023-08-12T04:58:04;101778.56;;;23.33;100.00
35647;BME280;28680;45.642;13.756;2023-08-12T05:00:32;101785.09;;;23.31;100.00
35647;BME280;28680;45.642;13.756;2023-08-12T05:02:58;101782.06;;;23.34;100.00
35647;BME280;28680;45.642;13.756;2023-08-12T05:05:26;101776.81;;;23.41;100.00
35647;BME280;28680;45.642;13.756;2023-08-12T05:07:52;101773.66;;;23.37;100.00
35647;BME280;28680;45.642;13.756;2023-08-12T05:10:19;101781.06;;;23.35;100.00
35647;BME280;28680;45.642;13.756;2023-08-12T05:12:45;101780.31;;;23.41;100.00
35647;BME280;28680;45.642;13.756;2023-08-12T05:15:13;101778.19;;;23.37;100.00
35647;BME280;28680;45.642;13.756;2023-08-12T05:17:39;101769.47;;;23.34;100.00
35647;BME280;28680;45.642;13.756;2023-08-12T05:20:07;101779.97;;;23.44;100.00
35647;BME280;28680;45.642;13.756;2023-08-12T05:22:34;101784.00;;;23.40;100.00
35647;BME280;28680;45.642;13.756;2023-08-12T05:25:00;101778.31;;;23.43;100.00
35647;BME280;28680;45.642;13.756;2023-08-12T05:27:26;101776.88;;;23.55;100.00
35647;BME280;28680;45.642;13.756;2023-08-12T05:29:52;101778.34;;;23.58;100.00
35647;BME280;28680;45.642;13.756;2023-08-12T05:32:18;101780.47;;;23.63;100.00
35647;BME280;28680;45.642;13.756;2023-08-12T05:34:44;101785.38;;;23.59;100.00
35647;BME280;28680;45.642;13.756;2023-08-12T05:37:09;101779.66;;;23.62;100.00
35647;BME280;28680;45.642;13.756;2023-08-12T05:39:35;101779.28;;;23.65;100.00
35647;BME280;28680;45.642;13.756;2023-08-12T05:42:01;101777.25;;;23.67;100.00
35647;BME280;28680;45.642;13.756;2023-08-12T05:44:27;101773.56;;;23.68;100.00
35647;BME280;28680;45.642;13.756;2023-08-12T05:46:53;101772.56;;;23.69;100.00
35647;BME280;28680;45.642;13.756;2023-08-12T05:49:19;101774.66;;;23.74;100.00
35647;BME280;28680;45.642;13.756;2023-08-12T05:51:45;101767.78;;;23.80;100.00
35647;BME280;28680;45.642;13.756;2023-08-12T05:54:11;101768.25;;;23.83;100.00
35647;BME280;28680;45.642;13.756;2023-08-12T05:56:37;101765.03;;;23.88;100.00
35647;BME280;28680;45.642;13.756;2023-08-12T05:59:03;101773.72;;;23.90;100.00
35647;BME280;28680;45.642;13.756;2023-08-12T06:01:29;101775.03;;;23.94;100.00
35647;BME280;28680;45.642;13.756;2023-08-12T06:03:55;101771.78;;;23.99;100.00
35647;BME280;28680;45.642;13.756;2023-08-12T06:06:21;101771.88;;;24.05;100.00
35647;BME280;28680;45.642;13.756;2023-08-12T06:08:48;101774.84;;;24.10;100.00
35647;BME280;28680;45.642;13.756;2023-08-12T06:11:14;101772.91;;;24.19;100.00
35647;BME280;28680;45.642;13.756;2023-08-12T06:13:40;101771.50;;;24.23;100.00
35647;BME280;28680;45.642;13.756;2023-08-12T06:16:06;101769.66;;;24.24;100.00
35647;BME280;28680;45.642;13.756;2023-08-12T06:18:33;101768.47;;;24.26;100.00
35647;BME280;28680;45.642;13.756;2023-08-12T06:20:59;101775.03;;;24.24;100.00
35647;BME280;28680;45.642;13.756;2023-08-12T06:23:24;101768.28;;;24.28;100.00
35647;BME280;28680;45.642;13.756;2023-08-12T06:25:50;101770.13;;;24.27;100.00
35647;BME280;28680;45.642;13.756;2023-08-12T06:28:16;101773.47;;;24.29;100.00
35647;BME280;28680;45.642;13.756;2023-08-12T06:30:45;101773.72;;;24.35;100.00
35647;BME280;28680;45.642;13.756;2023-08-12T06:33:12;101782.03;;;24.40;100.00
35647;BME280;28680;45.642;13.756;2023-08-12T06:35:38;101773.06;;;24.47;100.00
35647;BME280;28680;45.642;13.756;2023-08-12T06:38:05;101775.13;;;24.60;100.00
35647;BME280;28680;45.642;13.756;2023-08-12T06:40:31;101777.22;;;24.65;100.00
35647;BME280;28680;45.642;13.756;2023-08-12T06:42:57;101773.81;;;24.71;100.00
35647;BME280;28680;45.642;13.756;2023-08-12T06:45:23;101769.72;;;24.75;100.00
35647;BME280;28680;45.642;13.756;2023-08-12T06:47:49;101770.19;;;24.79;100.00
35647;BME280;28680;45.642;13.756;2023-08-12T06:50:15;101765.91;;;24.84;100.00
35647;BME280;28680;45.642;13.756;2023-08-12T06:52:41;101761.44;;;24.92;100.00
35647;BME280;28680;45.642;13.756;2023-08-12T06:55:07;101759.44;;;25.00;100.00
35647;BME280;28680;45.642;13.756;2023-08-12T06:57:33;101761.16;;;25.08;100.00
35647;BME280;28680;45.642;13.756;2023-08-12T06:59:59;101758.16;;;25.18;100.00
35647;BME280;28680;45.642;13.756;2023-08-12T07:02:25;101762.59;;;25.25;100.00
35647;BME280;28680;45.642;13.756;2023-08-12T07:04:51;101755.00;;;25.29;100.00
35647;BME280;28680;45.642;13.756;2023-08-12T07:07:17;101755.50;;;25.39;100.00
35647;BME280;28680;45.642;13.756;2023-08-12T07:09:43;101756.34;;;25.40;100.00
35647;BME280;28680;45.642;13.756;2023-08-12T07:12:09;101755.78;;;25.44;100.00
35647;BME280;28680;45.642;13.756;2023-08-12T07:14:35;101754.19;;;25.57;100.00
35647;BME280;28680;45.642;13.756;2023-08-12T07:17:01;101748.34;;;25.75;100.00
35647;BME280;28680;45.642;13.756;2023-08-12T07:19:27;101757.06;;;25.83;100.00
35647;BME280;28680;45.642;13.756;2023-08-12T07:21:53;101753.59;;;25.90;100.00
35647;BME280;28680;45.642;13.756;2023-08-12T07:24:19;101754.69;;;25.95;100.00
35647;BME280;28680;45.642;13.756;2023-08-12T07:26:45;101745.84;;;26.01;100.00
35647;BME280;28680;45.642;13.756;2023-08-12T07:29:11;101750.88;;;26.11;100.00
35647;BME280;28680;45.642;13.756;2023-08-12T07:31:37;101742.81;;;26.18;100.00
35647;BME280;28680;45.642;13.756;2023-08-12T07:34:03;101748.81;;;26.20;100.00
35647;BME280;28680;45.642;13.756;2023-08-12T07:36:29;101748.81;;;26.20;100.00
35647;BME280;28680;45.642;13.756;2023-08-12T07:38:55;101740.41;;;26.36;100.00
35647;BME280;28680;45.642;13.756;2023-08-12T07:41:21;101753.28;;;26.48;100.00
35647;BME280;28680;45.642;13.756;2023-08-12T07:43:47;101746.50;;;26.58;100.00
35647;BME280;28680;45.642;13.756;2023-08-12T07:46:13;101748.03;;;26.68;100.00
35647;BME280;28680;45.642;13.756;2023-08-12T07:48:39;101749.66;;;26.69;100.00
35647;BME280;28680;45.642;13.756;2023-08-12T07:51:06;101754.84;;;26.70;100.00
35647;BME280;28680;45.642;13.756;2023-08-12T07:53:32;101754.03;;;26.76;100.00
35647;BME280;28680;45.642;13.756;2023-08-12T07:55:58;101754.25;;;26.81;100.00
35647;BME280;28680;45.642;13.756;2023-08-12T07:58:24;101753.44;;;26.88;100.00
35647;BME280;28680;45.642;13.756;2023-08-12T08:00:53;101754.50;;;26.93;100.00
35647;BME280;28680;45.642;13.756;2023-08-12T08:03:19;101759.72;;;27.01;100.00
35647;BME280;28680;45.642;13.756;2023-08-12T08:05:45;101751.63;;;27.08;100.00
35647;BME280;28680;45.642;13.756;2023-08-12T08:08:13;101755.75;;;27.04;100.00
35647;BME280;28680;45.642;13.756;2023-08-12T08:10:39;101754.09;;;27.16;100.00
35647;BME280;28680;45.642;13.756;2023-08-12T08:13:05;101757.03;;;27.15;100.00
35647;BME280;28680;45.642;13.756;2023-08-12T08:15:31;101759.09;;;27.13;100.00
35647;BME280;28680;45.642;13.756;2023-08-12T08:17:57;101757.22;;;27.13;100.00
35647;BME280;28680;45.642;13.756;2023-08-12T08:20:23;101754.09;;;27.16;100.00
35647;BME280;28680;45.642;13.756;2023-08-12T08:22:49;101757.00;;;27.21;100.00
35647;BME280;28680;45.642;13.756;2023-08-12T08:25:15;101756.44;;;27.26;100.00
35647;BME280;28680;45.642;13.756;2023-08-12T08:27:41;101755.41;;;27.27;100.00
35647;BME280;28680;45.642;13.756;2023-08-12T08:30:07;101758.50;;;27.24;100.00
35647;BME280;28680;45.642;13.756;2023-08-12T08:32:34;101768.25;;;27.32;100.00
35647;BME280;28680;45.642;13.756;2023-08-12T08:35:00;101762.03;;;27.38;100.00
35647;BME280;28680;45.642;13.756;2023-08-12T08:37:26;101767.22;;;27.39;100.00
35647;BME280;28680;45.642;13.756;2023-08-12T08:39:52;101763.06;;;27.44;100.00
35647;BME280;28680;45.642;13.756;2023-08-12T08:42:20;101762.88;;;27.45;100.00
35647;BME280;28680;45.642;13.756;2023-08-12T08:44:54;101768.03;;;27.53;100.00
35647;BME280;28680;45.642;13.756;2023-08-12T08:47:26;101762.03;;;27.65;100.00
35647;BME280;28680;45.642;13.756;2023-08-12T08:49:56;101764.94;;;27.70;100.00
35647;BME280;28680;45.642;13.756;2023-08-12T08:52:26;101773.41;;;27.87;100.00
35647;BME280;28680;45.642;13.756;2023-08-12T08:54:52;101770.09;;;27.85;100.00
35647;BME280;28680;45.642;13.756;2023-08-12T08:57:18;101770.50;;;27.95;100.00
35647;BME280;28680;45.642;13.756;2023-08-12T08:59:45;101769.88;;;27.99;100.00
35647;BME280;28680;45.642;13.756;2023-08-12T09:02:19;101773.56;;;28.18;100.00
35647;BME280;28680;45.642;13.756;2023-08-12T09:04:49;101764.63;;;28.25;100.00
35647;BME280;28680;45.642;13.756;2023-08-12T09:07:15;101771.81;;;28.44;100.00
35647;BME280;28680;45.642;13.756;2023-08-12T09:09:46;101773.84;;;28.62;100.00
35647;BME280;28680;45.642;13.756;2023-08-12T09:12:16;101767.28;;;28.83;100.00
35647;BME280;28680;45.642;13.756;2023-08-12T09:14:43;101761.16;;;28.63;100.00
35647;BME280;28680;45.642;13.756;2023-08-12T09:17:10;101760.97;;;28.64;100.00
35647;BME280;28680;45.642;13.756;2023-08-12T09:19:36;101763.00;;;28.69;100.00
35647;BME280;28680;45.642;13.756;2023-08-12T09:22:07;101763.91;;;28.94;100.00
35647;BME280;28680;45.642;13.756;2023-08-12T09:24:34;101770.03;;;29.15;100.00
35647;BME280;28680;45.642;13.756;2023-08-12T09:27:01;101767.38;;;29.33;100.00
35647;BME280;28680;45.642;13.756;2023-08-12T09:29:34;101762.81;;;29.34;100.00
35647;BME280;28680;45.642;13.756;2023-08-12T09:32:17;101762.16;;;29.32;100.00
35647;BME280;28680;45.642;13.756;2023-08-12T09:34:53;101759.78;;;29.67;100.00
35647;BME280;28680;45.642;13.756;2023-08-12T09:37:22;101761.41;;;29.75;100.00
35647;BME280;28680;45.642;13.756;2023-08-12T09:39:51;101756.69;;;29.89;100.00
35647;BME280;28680;45.642;13.756;2023-08-12T09:42:18;101746.75;;;30.01;100.00
35647;BME280;28680;45.642;13.756;2023-08-12T09:44:44;101745.03;;;30.07;100.00
35647;BME280;28680;45.642;13.756;2023-08-12T09:47:11;101741.56;;;30.18;100.00
35647;BME280;28680;45.642;13.756;2023-08-12T09:49:38;101744.66;;;30.40;100.00
35647;BME280;28680;45.642;13.756;2023-08-12T09:52:07;101740.13;;;30.52;100.00
35647;BME280;28680;45.642;13.756;2023-08-12T09:54:37;101753.72;;;30.64;100.00
35647;BME280;28680;45.642;13.756;2023-08-12T09:57:04;101740.06;;;30.71;100.00
35647;BME280;28680;45.642;13.756;2023-08-12T09:59:35;101742.81;;;30.83;100.00
35647;BME280;28680;45.642;13.756;2023-08-12T10:02:03;101742.78;;;31.01;100.00
35647;BME280;28680;45.642;13.756;2023-08-12T10:04:44;101737.94;;;30.92;100.00
35647;BME280;28680;45.642;13.756;2023-08-12T10:07:12;101735.22;;;30.61;100.00
35647;BME280;28680;45.642;13.756;2023-08-12T10:09:42;101744.56;;;30.47;100.00
35647;BME280;28680;45.642;13.756;2023-08-12T10:12:09;101737.28;;;30.78;100.00
35647;BME280;28680;45.642;13.756;2023-08-12T10:14:35;101733.50;;;30.79;100.00
35647;BME280;28680;45.642;13.756;2023-08-12T10:17:02;101736.22;;;30.48;100.00
35647;BME280;28680;45.642;13.756;2023-08-12T10:19:30;101726.00;;;30.32;100.00
35647;BME280;28680;45.642;13.756;2023-08-12T10:21:59;101721.97;;;30.23;100.00
35647;BME280;28680;45.642;13.756;2023-08-12T10:24:27;101733.94;;;30.45;100.00
35647;BME280;28680;45.642;13.756;2023-08-12T10:26:56;101731.91;;;30.59;100.00
35647;BME280;28680;45.642;13.756;2023-08-12T10:29:25;101720.31;;;30.82;100.00
35647;BME280;28680;45.642;13.756;2023-08-12T12:14:30;101658.53;;;32.94;100.00
35647;BME280;28680;45.642;13.756;2023-08-12T12:16:56;101653.59;;;33.25;100.00
35647;BME280;28680;45.642;13.756;2023-08-12T12:19:23;101644.00;;;33.39;100.00
35647;BME280;28680;45.642;13.756;2023-08-12T12:21:51;101643.75;;;33.40;100.00
35647;BME280;28680;45.642;13.756;2023-08-12T12:24:19;101641.31;;;33.22;100.00
35647;BME280;28680;45.642;13.756;2023-08-12T12:26:47;101650.53;;;33.04;100.00
35647;BME280;28680;45.642;13.756;2023-08-12T12:29:13;101648.97;;;33.25;100.00
35647;BME280;28680;45.642;13.756;2023-08-12T12:31:41;101643.59;;;33.30;100.00
35647;BME280;28680;45.642;13.756;2023-08-12T12:34:07;101640.56;;;33.10;100.00
35647;BME280;28680;45.642;13.756;2023-08-12T12:36:37;101637.28;;;33.64;100.00
35647;BME280;28680;45.642;13.756;2023-08-12T12:39:04;101637.69;;;33.77;100.00
35647;BME280;28680;45.642;13.756;2023-08-12T12:41:31;101636.91;;;33.60;100.00
35647;BME280;28680;45.642;13.756;2023-08-12T12:43:57;101630.00;;;33.30;100.00
35647;BME280;28680;45.642;13.756;2023-08-12T12:46:23;101639.75;;;33.09;100.00
35647;BME280;28680;45.642;13.756;2023-08-12T12:48:49;101641.41;;;33.27;100.00
35647;BME280;28680;45.642;13.756;2023-08-12T12:51:15;101636.53;;;33.29;100.00
35647;BME280;28680;45.642;13.756;2023-08-12T12:53:41;101629.06;;;33.41;100.00
35647;BME280;28680;45.642;13.756;2023-08-12T12:56:07;101632.00;;;33.79;100.00
35647;BME280;28680;45.642;13.756;2023-08-12T12:58:34;101623.78;;;33.74;100.00
35647;BME280;28680;45.642;13.756;2023-08-12T13:01:01;101618.63;;;33.55;100.00
35647;BME280;28680;45.642;13.756;2023-08-12T13:03:27;101617.41;;;33.24;100.00
35647;BME280;28680;45.642;13.756;2023-08-12T13:05:54;101626.03;;;33.38;100.00
35647;BME280;28680;45.642;13.756;2023-08-12T13:08:20;101622.97;;;33.34;100.00
35647;BME280;28680;45.642;13.756;2023-08-12T13:10:46;101614.50;;;33.53;100.00
35647;BME280;28680;45.642;13.756;2023-08-12T13:13:16;101614.09;;;33.83;100.00
35647;BME280;28680;45.642;13.756;2023-08-12T13:15:43;101610.53;;;34.10;100.00
35647;BME280;28680;45.642;13.756;2023-08-12T13:18:10;101605.53;;;33.52;100.00
35647;BME280;28680;45.642;13.756;2023-08-12T13:20:37;101612.97;;;33.18;100.00
35647;BME280;28680;45.642;13.756;2023-08-12T13:26:04;101608.09;;;33.20;100.00
35647;BME280;28680;45.642;13.756;2023-08-12T13:28:33;101600.59;;;33.10;100.00
35647;BME280;28680;45.642;13.756;2023-08-12T13:31:00;101593.50;;;33.48;100.00
35647;BME280;28680;45.642;13.756;2023-08-12T13:33:26;101596.06;;;33.33;100.00
35647;BME280;28680;45.642;13.756;2023-08-12T13:35:52;101588.31;;;33.47;100.00
35647;BME280;28680;45.642;13.756;2023-08-12T13:38:18;101575.56;;;33.69;100.00
35647;BME280;28680;45.642;13.756;2023-08-12T13:41:09;101572.38;;;33.77;100.00
35647;BME280;28680;45.642;13.756;2023-08-12T13:43:44;101578.97;;;33.59;100.00
35647;BME280;28680;45.642;13.756;2023-08-12T13:46:17;101572.94;;;34.07;100.00
35647;BME280;28680;45.642;13.756;2023-08-12T13:48:43;101575.38;;;34.08;100.00
35647;BME280;28680;45.642;13.756;2023-08-12T13:51:31;101569.75;;;34.15;100.00
35647;BME280;28680;45.642;13.756;2023-08-12T13:56:41;101566.06;;;34.26;100.00
35647;BME280;28680;45.642;13.756;2023-08-12T13:59:15;101570.72;;;34.31;100.00
35647;BME280;28680;45.642;13.756;2023-08-12T14:01:53;101574.09;;;34.43;100.00
35647;BME280;28680;45.642;13.756;2023-08-12T14:04:22;101571.91;;;34.78;100.00
35647;BME280;28680;45.642;13.756;2023-08-12T14:06:48;101568.63;;;34.75;100.00
35647;BME280;28680;45.642;13.756;2023-08-12T14:09:17;101566.63;;;34.66;100.00
35647;BME280;28680;45.642;13.756;2023-08-12T14:11:45;101573.09;;;34.54;100.00
35647;BME280;28680;45.642;13.756;2023-08-12T14:14:11;101579.97;;;35.00;100.00
35647;BME280;28680;45.642;13.756;2023-08-12T14:16:37;101568.69;;;34.86;100.00
35647;BME280;28680;45.642;13.756;2023-08-12T14:19:04;101559.53;;;34.65;100.00
35647;BME280;28680;45.642;13.756;2023-08-12T14:21:30;101569.28;;;34.55;100.00
35647;BME280;28680;45.642;13.756;2023-08-12T14:23:56;101565.69;;;34.45;100.00
35647;BME280;28680;45.642;13.756;2023-08-12T14:26:22;101563.88;;;34.61;100.00